Time;durP1;ratioP1;P1;durP2;ratioP2;P2;SDS_P1;SDS_P2;PMS_P1;PMS_P2;Temp;Humidity;BMP_temperature;BMP_pressure;BME280_temperature;BME280_humidity;BME280_pressure;Samples;Min_cycle;Max_cycle;Signal;HPM_P1;HPM_P2
2022/12/07 00:01:22;;;;;;;0.68;0.32;;;3.60;99.90;;;;;;6213946;23;20020;-82
2022/12/07 00:03:51;;;;;;;0.38;0.38;;;3.00;99.90;;;;;;6214334;23;20012;-82
2022/12/07 00:06:17;;;;;;;0.90;0.50;;;3.00;99.90;;;;;;6214296;23;20024;-82
2022/12/07 00:08:44;;;;;;;0.52;0.22;;;3.00;99.90;;;;;;6189202;23;20025;-82
2022/12/07 00:11:12;;;;;;;0.00;0.00;;;3.00;99.90;;;;;;6214146;23;20024;-82
2022/12/07 00:13:38;;;;;;;0.32;0.32;;;3.00;99.90;;;;;;6188918;23;20107;-82
2022/12/07 00:16:08;;;;;;;0.10;0.10;;;3.10;99.90;;;;;;6189616;23;20044;-82
2022/12/07 00:18:34;;;;;;;0.00;0.00;;;3.10;99.90;;;;;;6213737;23;20008;-82
2022/12/07 00:21:04;;;;;;;1.03;0.80;;;3.50;99.90;;;;;;6213753;23;20060;-82
2022/12/07 00:23:30;;;;;;;1.25;0.65;;;3.30;99.90;;;;;;6187825;23;20027;-82
2022/12/07 00:25:56;;;;;;;1.20;0.50;;;3.20;99.90;;;;;;6213938;23;20095;-82
2022/12/07 00:28:21;;;;;;;2.37;0.97;;;3.10;99.90;;;;;;6189025;23;20019;-85
2022/12/07 00:30:47;;;;;;;3.83;0.80;;;3.10;99.90;;;;;;6163809;23;20092;-82
2022/12/07 00:33:13;;;;;;;1.73;0.27;;;3.10;99.90;;;;;;6188630;23;20059;-82
2022/12/07 00:35:39;;;;;;;2.43;1.53;;;3.10;99.90;;;;;;6163695;23;20051;-82
2022/12/07 00:38:04;;;;;;;1.47;0.57;;;3.10;99.90;;;;;;6164300;23;20012;-82
2022/12/07 00:40:30;;;;;;;1.90;1.47;;;3.10;99.90;;;;;;6164004;23;20110;-82
2022/12/07 00:42:55;;;;;;;0.47;0.47;;;3.00;99.90;;;;;;6188480;23;20019;-82
2022/12/07 00:45:21;;;;;;;2.20;0.30;;;3.00;99.90;;;;;;6164507;23;20090;-82
2022/12/07 00:47:47;;;;;;;0.53;0.53;;;3.10;99.90;;;;;;6164018;23;20096;-82
2022/12/07 00:50:13;;;;;;;0.10;0.10;;;3.00;99.90;;;;;;6164278;23;20023;-82
2022/12/07 00:52:38;;;;;;;0.67;0.67;;;3.30;99.90;;;;;;6188480;23;20090;-81
2022/12/07 00:55:07;;;;;;;0.55;0.17;;;3.00;99.90;;;;;;6213572;23;20017;-82
2022/12/07 00:57:32;;;;;;;0.20;0.20;;;2.90;99.90;;;;;;6163583;23;20020;-82
2022/12/07 01:00:00;;;;;;;0.30;0.20;;;2.90;99.90;;;;;;6163697;23;20102;-82
2022/12/07 01:02:26;;;;;;;0.20;0.20;;;2.90;99.90;;;;;;6189493;23;20027;-86
2022/12/07 01:04:51;;;;;;;2.23;0.47;;;2.80;99.90;;;;;;6163305;23;20017;-82
2022/12/07 01:07:17;;;;;;;0.77;0.40;;;2.80;99.90;;;;;;6163454;23;20016;-82
2022/12/07 01:09:43;;;;;;;0.17;0.17;;;2.80;99.90;;;;;;6212822;23;20021;-82
2022/12/07 01:12:08;;;;;;;0.40;0.40;;;2.80;99.90;;;;;;6164573;23;20013;-82
2022/12/07 01:14:34;;;;;;;0.23;0.13;;;2.50;99.90;;;;;;6212565;23;20330;-82
2022/12/07 01:17:00;;;;;;;0.70;0.07;;;2.90;99.90;;;;;;6188480;23;20021;-82
2022/12/07 01:19:25;;;;;;;0.00;0.00;;;3.40;99.90;;;;;;6188945;23;20092;-81
2022/12/07 01:21:51;;;;;;;0.10;0.10;;;3.20;99.90;;;;;;6138924;23;20013;-82
2022/12/07 01:24:17;;;;;;;0.57;0.20;;;3.00;99.90;;;;;;6163959;23;20012;-81
2022/12/07 01:26:42;;;;;;;0.00;0.00;;;3.60;99.90;;;;;;6213210;23;20020;-82
2022/12/07 01:29:08;;;;;;;2.17;0.63;;;2.60;99.90;;;;;;6163926;23;20017;-81
2022/12/07 01:31:34;;;;;;;0.53;0.43;;;3.60;99.90;;;;;;6162989;23;20013;-82
2022/12/07 01:34:00;;;;;;;0.17;0.10;;;2.90;99.90;;;;;;6163915;23;20099;-82
2022/12/07 01:36:32;;;;;;;0.00;0.00;;;2.80;99.90;;;;;;6188966;23;20074;-82
2022/12/07 01:39:00;;;;;;;0.30;0.30;;;2.70;99.90;;;;;;6213793;23;20091;-82
2022/12/07 01:41:28;;;;;;;0.00;0.00;;;3.50;99.90;;;;;;6213611;23;20012;-81
2022/12/07 01:44:15;;;;;;;0.00;0.00;;;2.80;99.90;;;;;;6187873;23;20016;-82
2022/12/07 01:46:43;;;;;;;0.52;0.00;;;2.90;99.90;;;;;;6187869;23;20020;-81
2022/12/07 01:49:35;;;;;;;0.10;0.10;;;3.40;99.90;;;;;;6189157;23;20012;-82
2022/12/07 01:52:26;;;;;;;0.00;0.00;;;2.90;99.90;;;;;;6169474;23;20017;-83
2022/12/07 01:55:00;;;;;;;0.00;0.00;;;3.00;99.90;;;;;;6193583;23;20017;-81
2022/12/07 01:57:26;;;;;;;0.00;0.00;;;4.10;99.90;;;;;;6188646;23;20017;-82
2022/12/07 01:59:55;;;;;;;0.00;0.00;;;3.00;99.90;;;;;;6187755;23;20055;-82
2022/12/07 02:02:31;;;;;;;0.00;0.00;;;4.40;99.90;;;;;;6188661;23;20028;-82
2022/12/07 02:05:00;;;;;;;0.40;0.00;;;3.10;99.90;;;;;;6187476;23;20023;-82
2022/12/07 02:07:27;;;;;;;0.00;0.00;;;3.20;99.90;;;;;;6189029;23;20092;-82
2022/12/07 02:09:53;;;;;;;0.00;0.00;;;3.20;99.90;;;;;;6214740;23;20016;-82
2022/12/07 02:12:21;;;;;;;0.00;0.00;;;3.80;99.90;;;;;;6165610;23;20039;-82
2022/12/07 02:14:48;;;;;;;0.00;0.00;;;3.20;99.90;;;;;;6190174;23;20013;-82
2022/12/07 02:17:18;;;;;;;0.00;0.00;;;4.30;99.90;;;;;;6215913;23;20013;-82
2022/12/07 02:20:02;;;;;;;0.00;0.00;;;3.20;99.90;;;;;;6214879;23;20020;-82
2022/12/07 02:22:40;;;;;;;0.00;0.00;;;3.20;99.90;;;;;;6190211;23;20013;-81
2022/12/07 02:25:14;;;;;;;0.05;0.00;;;3.10;99.90;;;;;;6214963;23;20449;-82
2022/12/07 02:28:05;;;;;;;0.00;0.00;;;3.30;99.90;;;;;;6214747;23;20349;-85
2022/12/07 02:30:35;;;;;;;1.88;0.25;;;3.50;99.90;;;;;;6189510;23;20016;-81
2022/12/07 02:33:17;;;;;;;0.13;0.13;;;3.00;99.90;;;;;;6215013;23;20016;-81
2022/12/07 02:35:50;;;;;;;0.30;0.10;;;2.90;99.90;;;;;;6214849;23;20024;-82
2022/12/07 02:38:30;;;;;;;0.35;0.35;;;2.90;99.90;;;;;;6190308;23;20442;-81
2022/12/07 02:41:05;;;;;;;0.15;0.15;;;2.90;99.90;;;;;;6189560;23;20013;-81
2022/12/07 02:43:38;;;;;;;0.03;0.03;;;2.90;99.90;;;;;;6190219;23;20016;-81
2022/12/07 02:46:17;;;;;;;0.70;0.10;;;3.10;99.90;;;;;;6189704;23;20083;-81
2022/12/07 02:48:44;;;;;;;0.10;0.10;;;2.90;99.90;;;;;;6189953;23;20027;-81
2022/12/07 02:51:11;;;;;;;0.00;0.00;;;2.90;99.90;;;;;;6189937;23;20465;-81
2022/12/07 02:53:40;;;;;;;0.00;0.00;;;3.50;99.90;;;;;;6165054;23;20449;-81
2022/12/07 02:56:30;;;;;;;0.05;0.05;;;2.90;99.90;;;;;;6214583;23;20445;-82
2022/12/07 02:58:56;;;;;;;0.00;0.00;;;2.90;99.90;;;;;;6189717;23;20020;-82
2022/12/07 03:02:03;;;;;;;0.10;0.10;;;3.90;99.90;;;;;;6190512;23;20021;-81
2022/12/07 03:04:41;;;;;;;0.00;0.00;;;2.90;99.90;;;;;;6214734;23;20024;-81
2022/12/07 03:07:49;;;;;;;0.00;0.00;;;2.90;99.90;;;;;;6189363;23;20020;-81
2022/12/07 03:10:48;;;;;;;0.00;0.00;;;3.00;99.90;;;;;;6214862;23;20078;-81
2022/12/07 03:13:41;;;;;;;0.00;0.00;;;3.10;99.90;;;;;;6182243;23;20079;-81
2022/12/07 03:16:21;;;;;;;0.00;0.00;;;3.10;99.90;;;;;;6214239;23;20012;-82
2022/12/07 03:18:57;;;;;;;0.00;0.00;;;3.10;99.90;;;;;;6213748;23;20103;-86
2022/12/07 03:21:39;;;;;;;0.00;0.00;;;3.10;99.90;;;;;;6214627;23;20106;-82
2022/12/07 03:24:18;;;;;;;0.00;0.00;;;3.50;99.90;;;;;;6213986;23;20616;-81
2022/12/07 03:27:19;;;;;;;0.00;0.00;;;3.10;99.90;;;;;;6214631;23;20020;-83
2022/12/07 03:29:58;;;;;;;0.08;0.00;;;3.40;99.90;;;;;;6136000;23;20012;-82
2022/12/07 03:32:31;;;;;;;0.00;0.00;;;3.40;99.90;;;;;;6189435;23;20025;-82
2022/12/07 03:35:06;;;;;;;0.00;0.00;;;3.00;99.90;;;;;;6188882;23;20342;-81
2022/12/07 03:37:56;;;;;;;0.00;0.00;;;3.00;99.90;;;;;;6214331;23;20017;-82
2022/12/07 03:40:34;;;;;;;0.00;0.00;;;3.00;99.90;;;;;;6214467;23;20067;-82
2022/12/07 03:43:03;;;;;;;0.10;0.10;;;2.90;99.90;;;;;;6214078;23;20021;-82
2022/12/07 03:45:41;;;;;;;0.00;0.00;;;3.00;99.90;;;;;;6165074;23;20051;-81
2022/12/07 03:48:50;;;;;;;0.00;0.00;;;2.90;99.90;;;;;;6188495;23;20013;-82
2022/12/07 03:51:25;;;;;;;0.00;0.00;;;2.90;99.90;;;;;;6214219;23;20021;-83
2022/12/07 03:53:59;;;;;;;0.00;0.00;;;2.90;99.90;;;;;;6214144;23;20023;-85
2022/12/07 03:56:27;;;;;;;0.10;0.00;;;2.90;99.90;;;;;;6189241;23;20017;-82
2022/12/07 03:58:53;;;;;;;0.00;0.00;;;2.90;99.90;;;;;;6213527;23;20307;-83
2022/12/07 04:01:19;;;;;;;0.17;0.00;;;2.90;99.90;;;;;;6164366;23;20012;-81
2022/12/07 04:03:45;;;;;;;0.10;0.00;;;2.90;99.90;;;;;;6163772;23;20086;-85
2022/12/07 04:06:11;;;;;;;0.17;0.00;;;3.40;99.90;;;;;;6188370;23;20023;-82
2022/12/07 04:08:37;;;;;;;0.07;0.07;;;2.90;99.90;;;;;;6139539;23;20047;-81
2022/12/07 04:11:03;;;;;;;0.10;0.10;;;2.90;99.90;;;;;;6163639;23;20074;-81
2022/12/07 04:13:28;;;;;;;0.00;0.00;;;2.90;99.90;;;;;;6188507;23;20055;-82
2022/12/07 04:15:54;;;;;;;0.00;0.00;;;2.90;99.90;;;;;;6163637;23;20024;-86
2022/12/07 04:18:20;;;;;;;0.87;0.10;;;2.80;99.90;;;;;;6163419;23;20411;-84
2022/12/07 04:20:46;;;;;;;0.00;0.00;;;3.70;99.90;;;;;;6188807;23;20091;-82
2022/12/07 04:23:12;;;;;;;0.00;0.00;;;3.50;99.90;;;;;;6188080;23;20020;-82
2022/12/07 04:25:37;;;;;;;0.00;0.00;;;3.40;99.90;;;;;;6188644;23;20075;-81
2022/12/07 04:28:03;;;;;;;0.00;0.00;;;3.60;99.90;;;;;;6163624;23;20096;-81
2022/12/07 04:30:29;;;;;;;0.00;0.00;;;2.60;99.90;;;;;;6188239;23;20102;-81
2022/12/07 04:32:54;;;;;;;0.00;0.00;;;2.60;99.90;;;;;;6213696;23;20062;-84
2022/12/07 04:35:20;;;;;;;0.00;0.00;;;2.60;99.90;;;;;;6163641;23;20333;-81
2022/12/07 04:37:46;;;;;;;0.00;0.00;;;2.60;99.90;;;;;;6164490;23;20075;-82
2022/12/07 04:40:14;;;;;;;0.00;0.00;;;3.60;99.90;;;;;;6188605;23;20017;-82
2022/12/07 04:42:39;;;;;;;0.00;0.00;;;2.50;99.90;;;;;;6189199;23;20024;-81
2022/12/07 04:45:06;;;;;;;0.00;0.00;;;2.40;99.90;;;;;;6188410;23;20084;-82
2022/12/07 04:47:32;;;;;;;0.00;0.00;;;2.40;99.90;;;;;;6213897;23;20016;-81
2022/12/07 04:49:57;;;;;;;0.00;0.00;;;2.50;99.90;;;;;;6188380;23;20032;-86
2022/12/07 04:52:23;;;;;;;0.00;0.00;;;3.20;99.90;;;;;;6163904;23;20023;-81
2022/12/07 04:54:49;;;;;;;0.00;0.00;;;2.50;99.90;;;;;;6188749;23;20063;-81
2022/12/07 04:57:15;;;;;;;0.00;0.00;;;2.60;99.90;;;;;;6163574;23;20067;-81
2022/12/07 04:59:40;;;;;;;0.00;0.00;;;2.60;99.90;;;;;;6164184;23;20052;-81
2022/12/07 05:02:06;;;;;;;0.00;0.00;;;2.90;99.90;;;;;;6163544;23;20023;-81
2022/12/07 05:04:31;;;;;;;0.00;0.00;;;2.60;99.90;;;;;;6164422;23;20027;-81
2022/12/07 05:06:57;;;;;;;0.00;0.00;;;2.70;99.90;;;;;;6163870;23;20021;-81
2022/12/07 05:09:23;;;;;;;0.00;0.00;;;2.70;99.90;;;;;;6163887;23;20095;-82
2022/12/07 05:11:49;;;;;;;0.00;0.00;;;3.60;99.90;;;;;;6188161;23;20447;-81
2022/12/07 05:14:17;;;;;;;0.00;0.00;;;2.80;99.90;;;;;;6188575;23;20021;-81
2022/12/07 05:16:45;;;;;;;0.10;0.10;;;2.90;99.90;;;;;;6213819;23;20017;-81
2022/12/07 05:19:12;;;;;;;0.00;0.00;;;3.20;99.90;;;;;;6213704;23;20016;-81
2022/12/07 05:21:38;;;;;;;0.55;0.10;;;3.00;99.90;;;;;;6163781;23;20013;-81
2022/12/07 05:24:04;;;;;;;0.00;0.00;;;3.50;99.90;;;;;;6188232;23;20020;-85
2022/12/07 05:26:31;;;;;;;0.00;0.00;;;3.10;99.90;;;;;;6188818;23;20055;-81
2022/12/07 05:28:57;;;;;;;0.00;0.00;;;3.10;99.90;;;;;;6212742;23;20017;-82
2022/12/07 05:31:24;;;;;;;0.00;0.00;;;3.10;99.90;;;;;;6213356;23;20021;-81
2022/12/07 05:33:50;;;;;;;0.03;0.03;;;3.00;99.90;;;;;;6188155;23;20070;-82
2022/12/07 05:36:17;;;;;;;0.00;0.00;;;3.20;99.90;;;;;;6163400;23;20017;-81
2022/12/07 05:38:42;;;;;;;0.00;0.00;;;3.80;99.90;;;;;;6213687;23;20024;-82
2022/12/07 05:42:11;;;;;;;0.00;0.00;;;2.90;99.90;;;;;;6187381;23;20016;-82
2022/12/07 05:43:57;;;;;;;0.00;0.00;;;3.10;99.90;;;;;;6213078;23;20031;-81
2022/12/07 05:46:22;;;;;;;0.00;0.00;;;2.80;99.90;;;;;;6213337;23;20016;-81
2022/12/07 05:48:48;;;;;;;0.00;0.00;;;2.80;99.90;;;;;;6189100;23;20095;-81
2022/12/07 05:51:14;;;;;;;0.00;0.00;;;2.70;99.90;;;;;;6213198;23;20445;-82
2022/12/07 05:53:39;;;;;;;0.43;0.10;;;2.90;99.90;;;;;;6188564;23;20016;-81
2022/12/07 05:56:05;;;;;;;0.00;0.00;;;2.60;99.90;;;;;;6188888;23;20048;-81
2022/12/07 06:01:15;;;;;;;0.00;0.00;;;3.40;99.90;;;;;;6213169;23;20027;-81
2022/12/07 06:03:41;;;;;;;0.00;0.00;;;2.50;99.90;;;;;;6163381;23;20012;-81
2022/12/07 06:06:06;;;;;;;0.00;0.00;;;2.70;99.90;;;;;;6188911;23;20020;-81
2022/12/07 06:08:32;;;;;;;0.00;0.00;;;2.40;99.90;;;;;;6163458;23;20012;-81
2022/12/07 06:13:42;;;;;;;0.03;0.00;;;2.30;99.90;;;;;;6192076;23;20074;-81
2022/12/07 06:16:07;;;;;;;0.00;0.00;;;2.30;99.90;;;;;;6163385;23;20461;-81
2022/12/07 06:18:33;;;;;;;0.00;0.00;;;2.20;99.90;;;;;;6188357;23;20023;-81
2022/12/07 06:20:59;;;;;;;0.20;0.20;;;2.80;99.90;;;;;;6163659;23;20016;-82
2022/12/07 06:23:24;;;;;;;0.00;0.00;;;3.00;99.90;;;;;;6212285;23;20342;-81
2022/12/07 06:25:50;;;;;;;0.00;0.00;;;2.30;99.90;;;;;;6188340;23;20020;-81
2022/12/07 06:28:16;;;;;;;0.00;0.00;;;3.10;99.90;;;;;;6163510;23;20117;-82
2022/12/07 06:30:41;;;;;;;0.00;0.00;;;2.10;99.90;;;;;;6163986;23;20091;-81
2022/12/07 06:33:07;;;;;;;0.00;0.00;;;2.10;99.90;;;;;;6163678;23;20021;-81
2022/12/07 06:35:33;;;;;;;0.00;0.00;;;2.00;99.90;;;;;;6188230;23;20044;-81
2022/12/07 06:37:59;;;;;;;0.00;0.00;;;2.00;99.90;;;;;;6213525;23;20013;-81
2022/12/07 06:40:25;;;;;;;0.07;0.07;;;2.30;99.90;;;;;;6163048;23;20023;-81
2022/12/07 06:42:50;;;;;;;0.20;0.10;;;2.00;99.90;;;;;;6163832;23;20020;-81
2022/12/07 06:45:16;;;;;;;0.00;0.00;;;2.00;99.90;;;;;;6162875;23;20013;-83
2022/12/07 06:47:42;;;;;;;0.00;0.00;;;2.10;99.90;;;;;;6163950;23;20020;-82
2022/12/07 06:50:08;;;;;;;0.00;0.00;;;3.00;99.90;;;;;;6214910;23;20017;-82
2022/12/07 06:52:34;;;;;;;0.20;0.03;;;2.10;99.90;;;;;;6212545;23;20480;-82
2022/12/07 06:55:00;;;;;;;0.13;0.13;;;2.90;99.90;;;;;;6213990;23;20024;-83
2022/12/07 06:57:26;;;;;;;0.13;0.13;;;1.90;99.90;;;;;;6189676;23;20438;-82
2022/12/07 06:59:51;;;;;;;0.08;0.08;;;2.20;99.90;;;;;;6167243;23;20531;-82
2022/12/07 07:02:17;;;;;;;0.00;0.00;;;2.30;99.90;;;;;;6164332;23;20024;-87
2022/12/07 07:04:43;;;;;;;0.10;0.10;;;2.30;99.90;;;;;;6189278;23;20017;-82
2022/12/07 07:07:09;;;;;;;0.00;0.00;;;2.70;99.90;;;;;;6189263;23;20066;-81
2022/12/07 07:09:35;;;;;;;0.00;0.00;;;3.40;99.90;;;;;;6190087;23;20024;-81
2022/12/07 07:12:00;;;;;;;0.00;0.00;;;2.50;99.90;;;;;;6190543;23;20017;-81
2022/12/07 07:14:26;;;;;;;0.00;0.00;;;3.20;99.90;;;;;;6189098;23;20475;-81
2022/12/07 07:16:52;;;;;;;0.10;0.00;;;2.40;99.90;;;;;;6165048;23;20021;-81
2022/12/07 07:19:18;;;;;;;0.30;0.10;;;3.30;99.90;;;;;;6189297;23;20017;-87
2022/12/07 07:21:44;;;;;;;0.03;0.03;;;2.30;99.90;;;;;;6164455;23;20016;-80
2022/12/07 07:24:10;;;;;;;0.10;0.10;;;2.40;99.90;;;;;;6189701;23;20120;-81
2022/12/07 07:26:38;;;;;;;0.00;0.00;;;2.10;99.90;;;;;;6164423;23;20020;-81
2022/12/07 07:29:03;;;;;;;0.13;0.05;;;2.30;99.90;;;;;;6214854;23;20016;-80
2022/12/07 07:31:29;;;;;;;0.50;0.10;;;2.20;99.90;;;;;;6188984;23;20017;-81
2022/12/07 07:33:55;;;;;;;0.07;0.07;;;2.20;99.90;;;;;;6189332;23;20059;-83
2022/12/07 07:36:21;;;;;;;0.10;0.03;;;2.20;99.90;;;;;;6165130;23;20102;-80
2022/12/07 07:38:46;;;;;;;0.00;0.00;;;2.20;99.90;;;;;;6190003;23;20013;-81
2022/12/07 07:41:12;;;;;;;0.10;0.10;;;2.20;99.90;;;;;;6215147;23;20016;-82
2022/12/07 07:43:38;;;;;;;0.00;0.00;;;2.30;99.90;;;;;;6189371;23;20067;-81
2022/12/07 07:46:03;;;;;;;0.00;0.00;;;2.60;99.90;;;;;;6214843;23;20024;-82
2022/12/07 07:48:29;;;;;;;0.00;0.00;;;2.30;99.90;;;;;;6164851;23;20103;-81
2022/12/07 07:50:55;;;;;;;0.00;0.00;;;2.30;99.90;;;;;;6165031;23;20095;-81
2022/12/07 07:53:20;;;;;;;0.00;0.00;;;2.30;99.90;;;;;;6189986;23;20016;-81
2022/12/07 07:55:53;;;;;;;0.00;0.00;;;3.30;99.90;;;;;;6188702;23;20013;-83
2022/12/07 07:58:20;;;;;;;0.00;0.00;;;2.40;99.90;;;;;;6214376;23;20488;-81
2022/12/07 08:00:45;;;;;;;0.43;0.20;;;2.30;99.90;;;;;;6188629;23;20009;-81
2022/12/07 08:03:11;;;;;;;0.00;0.00;;;2.40;99.90;;;;;;6189660;23;20017;-82
2022/12/07 08:05:37;;;;;;;0.03;0.03;;;2.80;99.90;;;;;;6163682;23;20040;-82
2022/12/07 08:08:03;;;;;;;2.80;1.58;;;2.30;99.90;;;;;;6189916;23;20390;-82
2022/12/07 08:10:31;;;;;;;0.07;0.07;;;2.30;99.90;;;;;;6163722;23;20523;-82
2022/12/07 08:13:15;;;;;;;0.00;0.00;;;3.00;99.90;;;;;;6165397;23;20031;-81
2022/12/07 08:15:43;;;;;;;0.00;0.00;;;2.20;99.90;;;;;;6189310;23;20078;-81
2022/12/07 08:18:10;;;;;;;0.00;0.00;;;2.20;99.90;;;;;;6214767;23;20017;-81
2022/12/07 08:20:37;;;;;;;0.00;0.00;;;2.20;99.90;;;;;;6164520;23;20323;-81
2022/12/07 08:23:04;;;;;;;0.00;0.00;;;2.30;99.90;;;;;;6189657;23;20016;-81
2022/12/07 08:25:29;;;;;;;0.00;0.00;;;2.30;99.90;;;;;;6189245;23;20024;-82
2022/12/07 08:27:55;;;;;;;0.00;0.00;;;2.50;99.90;;;;;;6189519;23;20047;-81
2022/12/07 08:30:24;;;;;;;0.00;0.00;;;2.70;99.90;;;;;;6214229;23;20459;-81
2022/12/07 08:32:50;;;;;;;0.00;0.00;;;3.60;99.90;;;;;;6188691;23;20021;-81
2022/12/07 08:35:16;;;;;;;0.00;0.00;;;3.00;99.90;;;;;;6214564;23;20019;-81
2022/12/07 08:37:42;;;;;;;0.00;0.00;;;3.00;99.90;;;;;;6213696;23;20515;-82
2022/12/07 08:40:09;;;;;;;0.00;0.00;;;3.70;99.90;;;;;;6214422;23;20342;-81
2022/12/07 08:42:39;;;;;;;0.00;0.00;;;3.00;99.90;;;;;;6214155;23;20243;-81
2022/12/07 08:45:13;;;;;;;0.00;0.00;;;3.10;99.90;;;;;;6190501;23;20016;-81
2022/12/07 08:47:44;;;;;;;0.25;0.15;;;3.30;99.90;;;;;;6189385;23;20013;-81
2022/12/07 08:50:11;;;;;;;0.00;0.00;;;3.40;99.90;;;;;;6214797;23;20020;-81
2022/12/07 08:52:37;;;;;;;0.10;0.10;;;3.60;99.90;;;;;;6214015;23;20024;-82
2022/12/07 08:55:04;;;;;;;0.00;0.00;;;4.30;99.90;;;;;;6214004;23;20013;-81
2022/12/07 08:57:32;;;;;;;0.00;0.00;;;3.60;99.90;;;;;;6214353;23;20028;-81
2022/12/07 08:59:58;;;;;;;0.00;0.00;;;3.90;99.90;;;;;;6214370;23;20095;-81
2022/12/07 09:02:23;;;;;;;0.00;0.00;;;4.30;99.90;;;;;;6189580;23;20052;-81
2022/12/07 09:04:49;;;;;;;0.00;0.00;;;3.60;99.90;;;;;;6188827;23;20132;-81
2022/12/07 09:07:15;;;;;;;0.10;0.10;;;3.30;99.90;;;;;;6164286;23;20338;-81
2022/12/07 09:09:41;;;;;;;1.07;0.33;;;3.20;99.90;;;;;;6188869;23;20025;-81
2022/12/07 09:12:07;;;;;;;1.23;0.13;;;3.20;99.90;;;;;;6164346;23;20025;-81
2022/12/07 09:14:33;;;;;;;0.00;0.00;;;3.30;99.90;;;;;;6189124;23;20020;-81
2022/12/07 09:17:09;;;;;;;0.00;0.00;;;3.30;99.90;;;;;;6163548;23;20028;-81
2022/12/07 09:19:35;;;;;;;0.00;0.00;;;3.40;99.90;;;;;;6214536;23;20154;-81
2022/12/07 09:22:04;;;;;;;0.00;0.00;;;3.40;99.90;;;;;;6213661;23;20067;-82
2022/12/07 09:24:30;;;;;;;0.00;0.00;;;3.50;99.90;;;;;;6214046;23;20059;-82
2022/12/07 09:26:57;;;;;;;0.00;0.00;;;3.40;99.90;;;;;;6218081;23;20023;-82
2022/12/07 09:29:23;;;;;;;0.00;0.00;;;3.40;99.90;;;;;;6213558;23;20027;-81
2022/12/07 09:31:49;;;;;;;0.20;0.20;;;3.40;99.90;;;;;;6188560;23;20021;-82
2022/12/07 09:34:14;;;;;;;0.00;0.00;;;3.40;99.90;;;;;;6213926;23;20016;-82
2022/12/07 09:36:40;;;;;;;0.00;0.00;;;3.30;99.90;;;;;;6163635;23;20114;-86
2022/12/07 09:39:06;;;;;;;0.25;0.00;;;4.20;99.90;;;;;;6188731;23;20012;-82
2022/12/07 09:41:32;;;;;;;0.10;0.00;;;3.50;99.90;;;;;;6188680;23;20434;-82
2022/12/07 09:44:05;;;;;;;0.00;0.00;;;3.60;99.90;;;;;;6163481;23;20021;-82
2022/12/07 09:46:38;;;;;;;1.83;0.30;;;3.60;99.90;;;;;;6188289;23;20338;-82
2022/12/07 09:49:05;;;;;;;0.10;0.10;;;3.70;99.90;;;;;;6213325;23;20055;-82
2022/12/07 09:51:31;;;;;;;;;;;4.90;99.90;;;;;;6188835;23;20063;-82
2022/12/07 09:53:58;;;;;;;0.00;0.00;;;3.90;99.90;;;;;;6212957;23;19915;-82
2022/12/07 09:56:25;;;;;;;0.00;0.00;;;3.90;99.90;;;;;;6188292;23;20020;-82
2022/12/07 09:59:03;;;;;;;0.00;0.00;;;3.90;99.90;;;;;;6188151;23;20016;-82
2022/12/07 10:01:31;;;;;;;0.00;0.00;;;3.90;99.90;;;;;;6188733;23;20036;-82
2022/12/07 10:04:15;;;;;;;0.00;0.00;;;4.70;99.90;;;;;;6214698;23;20013;-86
2022/12/07 10:06:41;;;;;;;0.00;0.00;;;3.90;99.90;;;;;;6190770;23;20476;-82
2022/12/07 10:09:18;;;;;;;0.00;0.00;;;3.90;99.90;;;;;;6188175;23;20017;-84
2022/12/07 10:12:11;;;;;;;0.00;0.00;;;3.90;99.90;;;;;;6213276;23;20020;-87
2022/12/07 10:14:40;;;;;;;0.00;0.00;;;3.80;99.90;;;;;;6188738;23;20021;-82
2022/12/07 10:17:43;;;;;;;0.20;0.20;;;3.80;99.90;;;;;;6213091;23;20042;-82
2022/12/07 10:20:24;;;;;;;0.10;0.00;;;3.70;99.90;;;;;;6212657;23;20155;-83
2022/12/07 10:22:54;;;;;;;1.02;0.00;;;3.70;99.90;;;;;;6188028;23;20044;-83
2022/12/07 10:25:21;;;;;;;0.00;0.00;;;3.80;99.90;;;;;;6213517;23;20023;-83
2022/12/07 10:28:06;;;;;;;0.00;0.00;;;4.30;99.90;;;;;;6163227;23;20020;-85
2022/12/07 10:30:33;;;;;;;0.00;0.00;;;3.80;99.90;;;;;;6190447;23;20434;-83
2022/12/07 10:32:59;;;;;;;1.15;0.10;;;3.80;99.90;;;;;;6190059;23;20112;-82
2022/12/07 10:35:29;;;;;;;0.00;0.00;;;3.80;99.90;;;;;;6165946;23;20051;-83
2022/12/07 10:37:57;;;;;;;0.00;0.00;;;3.80;99.90;;;;;;6189451;23;20012;-83
2022/12/07 10:40:27;;;;;;;0.03;0.03;;;3.90;99.90;;;;;;6215263;23;20066;-83
2022/12/07 10:43:14;;;;;;;0.00;0.00;;;4.00;99.90;;;;;;6215064;23;20052;-83
2022/12/07 10:46:07;;;;;;;0.00;0.00;;;4.20;99.90;;;;;;6190275;23;20024;-83
2022/12/07 10:48:48;;;;;;;0.10;0.10;;;4.30;99.90;;;;;;6190648;23;20028;-83
2022/12/07 10:51:41;;;;;;;0.00;0.00;;;4.40;99.90;;;;;;6215437;23;20028;-82
2022/12/07 10:54:27;;;;;;;2.08;0.17;;;4.50;99.90;;;;;;6189953;23;20020;-83
2022/12/07 10:57:14;;;;;;;0.10;0.10;;;4.60;99.90;;;;;;6215128;23;20401;-83
2022/12/07 11:00:01;;;;;;;0.10;0.00;;;4.70;99.90;;;;;;6190242;23;20020;-83
2022/12/07 11:02:39;;;;;;;0.20;0.20;;;4.70;99.90;;;;;;6190458;23;20349;-82
2022/12/07 11:05:11;;;;;;;0.00;0.00;;;4.70;99.90;;;;;;6189766;23;20016;-83
2022/12/07 11:07:45;;;;;;;0.00;0.00;;;5.00;99.90;;;;;;6190283;23;20103;-83
2022/12/07 11:10:20;;;;;;;0.10;0.10;;;5.30;99.90;;;;;;6189652;23;20070;-83
2022/12/07 11:13:25;;;;;;;0.03;0.00;;;5.40;99.90;;;;;;6190357;23;20021;-81
2022/12/07 11:15:53;;;;;;;0.28;0.10;;;5.40;99.90;;;;;;6189897;23;20064;-82
2022/12/07 11:18:50;;;;;;;0.00;0.00;;;5.30;99.90;;;;;;6189886;23;20017;-82
2022/12/07 11:21:29;;;;;;;0.00;0.00;;;5.20;99.90;;;;;;6121252;23;20017;-82
2022/12/07 11:23:59;;;;;;;0.00;0.00;;;5.10;99.90;;;;;;6214723;23;20053;-86
2022/12/07 11:27:05;;;;;;;0.05;0.05;;;5.10;99.90;;;;;;6215122;23;20017;-84
2022/12/07 11:29:44;;;;;;;0.00;0.00;;;5.10;99.90;;;;;;6189680;23;20020;-83
2022/12/07 11:32:45;;;;;;;1.95;0.20;;;4.90;99.90;;;;;;6214708;23;20031;-82
2022/12/07 11:35:29;;;;;;;0.00;0.00;;;4.90;99.90;;;;;;6214908;23;20013;-82
2022/12/07 11:38:07;;;;;;;0.00;0.00;;;4.80;99.90;;;;;;6190025;23;20020;-87
2022/12/07 11:40:49;;;;;;;0.10;0.10;;;4.80;99.90;;;;;;6214794;23;20072;-82
2022/12/07 11:43:25;;;;;;;0.57;0.10;;;4.90;99.90;;;;;;6189510;23;20384;-82
2022/12/07 11:46:15;;;;;;;0.10;0.10;;;5.20;99.90;;;;;;6214766;23;20013;-83
2022/12/07 11:48:55;;;;;;;0.40;0.10;;;5.30;99.90;;;;;;6188895;23;20020;-82
2022/12/07 11:51:22;;;;;;;0.00;0.00;;;5.20;99.90;;;;;;6189367;23;20484;-83
2022/12/07 11:53:53;;;;;;;0.00;0.00;;;5.30;99.90;;;;;;6189295;23;20024;-83
2022/12/07 11:56:26;;;;;;;0.45;0.10;;;5.30;99.90;;;;;;6189230;23;20013;-83
2022/12/07 11:59:19;;;;;;;0.00;0.00;;;5.50;99.90;;;;;;6189785;23;20024;-82
2022/12/07 12:02:02;;;;;;;0.00;0.00;;;5.60;99.90;;;;;;6189834;23;20350;-82
2022/12/07 12:04:35;;;;;;;0.10;0.10;;;5.80;99.90;;;;;;6215309;23;20067;-82
2022/12/07 12:07:02;;;;;;;0.45;0.00;;;6.00;99.90;;;;;;6214067;23;20099;-83
2022/12/07 12:09:57;;;;;;;0.10;0.10;;;7.00;99.90;;;;;;6189933;23;20031;-81
2022/12/07 12:13:02;;;;;;;0.10;0.10;;;6.30;99.90;;;;;;6211212;23;20048;-81
2022/12/07 12:15:52;;;;;;;0.00;0.00;;;6.30;99.90;;;;;;6189778;23;20074;-81
2022/12/07 12:18:27;;;;;;;0.00;0.00;;;6.20;99.90;;;;;;6188220;23;20032;-81
2022/12/07 12:21:04;;;;;;;0.00;0.00;;;6.20;99.90;;;;;;6189710;23;20454;-81
2022/12/07 12:23:54;;;;;;;0.10;0.00;;;6.20;99.90;;;;;;6214910;23;20024;-81
2022/12/07 12:26:26;;;;;;;0.00;0.00;;;6.40;99.90;;;;;;6189338;23;20345;-81
2022/12/07 12:29:21;;;;;;;0.10;0.10;;;6.40;99.90;;;;;;6189772;23;20024;-81
2022/12/07 12:32:14;;;;;;;0.10;0.08;;;6.50;99.90;;;;;;6214724;23;20393;-81
2022/12/07 12:35:17;;;;;;;0.10;0.10;;;6.60;99.90;;;;;;6214629;23;20368;-81
2022/12/07 12:37:46;;;;;;;0.00;0.00;;;6.50;99.90;;;;;;6189412;23;20024;-81
2022/12/07 12:40:14;;;;;;;0.28;0.28;;;6.40;99.90;;;;;;6213903;23;20509;-82
2022/12/07 12:42:57;;;;;;;0.10;0.10;;;6.30;99.90;;;;;;6189429;23;20025;-81
2022/12/07 12:45:27;;;;;;;0.17;0.10;;;6.30;99.90;;;;;;6189384;23;20019;-81
2022/12/07 12:48:01;;;;;;;0.70;0.10;;;6.10;99.90;;;;;;6214650;23;20099;-81
2022/12/07 12:50:37;;;;;;;0.00;0.00;;;6.00;99.90;;;;;;6188861;23;20110;-81
2022/12/07 12:53:25;;;;;;;0.00;0.00;;;5.90;99.90;;;;;;6189036;23;20437;-81
2022/12/07 12:56:00;;;;;;;1.55;0.10;;;5.80;99.90;;;;;;6214391;23;20051;-81
2022/12/07 12:58:32;;;;;;;0.00;0.00;;;5.70;99.90;;;;;;6188515;23;20021;-82
2022/12/07 13:01:35;;;;;;;0.17;0.17;;;5.70;99.90;;;;;;6213881;23;20146;-81
2022/12/07 13:04:04;;;;;;;0.00;0.00;;;5.60;99.90;;;;;;6114337;23;20016;-81
2022/12/07 13:06:37;;;;;;;0.05;0.05;;;5.60;99.90;;;;;;6213651;23;20017;-80
2022/12/07 13:09:04;;;;;;;0.00;0.00;;;5.70;99.90;;;;;;6214442;23;20103;-80
2022/12/07 13:11:35;;;;;;;;;;;5.50;99.90;;;;;;6213618;23;20031;-80
2022/12/07 13:14:55;;;;;;;0.10;0.00;;;5.40;99.90;;;;;;6214230;23;20256;-80
2022/12/07 13:17:32;;;;;;;0.00;0.00;;;5.30;99.90;;;;;;6069283;23;20023;-80
2022/12/07 13:20:07;;;;;;;0.00;0.00;;;5.20;99.90;;;;;;6194668;23;20017;-80
2022/12/07 13:22:38;;;;;;;0.00;0.00;;;5.10;99.90;;;;;;6213676;23;20016;-80
2022/12/07 13:25:36;;;;;;;0.22;0.03;;;6.10;99.90;;;;;;6213763;23;20059;-79
2022/12/07 13:28:17;;;;;;;0.00;0.00;;;4.90;99.90;;;;;;6213558;23;20017;-80